createdAt,value
2023-04-28T00:01:15.158Z,10.04
2023-04-28T00:03:44.995Z,10.05
2023-04-28T00:06:13.725Z,10.08
2023-04-28T00:08:42.068Z,10.18
2023-04-28T00:11:11.259Z,10.13
2023-04-28T00:13:39.589Z,10.11
2023-04-28T00:16:08.750Z,10.06
2023-04-28T00:18:37.004Z,10.13
2023-04-28T00:21:06.831Z,10.15
2023-04-28T00:23:35.360Z,10.16
2023-04-28T00:26:03.937Z,10.15
2023-04-28T00:28:34.526Z,10.19
2023-04-28T00:31:03.694Z,10.13
2023-04-28T00:33:31.907Z,10.19
2023-04-28T00:36:01.878Z,10.19
2023-04-28T00:38:31.565Z,10.23
2023-04-28T00:40:59.799Z,10.13
2023-04-28T00:43:28.135Z,10.08
2023-04-28T00:45:56.567Z,10.11
2023-04-28T00:48:25.068Z,10.22
2023-04-28T00:50:53.676Z,10.07
2023-04-28T00:53:22.775Z,10.06
2023-04-28T00:55:57.160Z,9.96
2023-04-28T00:58:26.586Z,9.98
2023-04-28T01:00:54.934Z,10.00
2023-04-28T01:03:23.376Z,10.01
2023-04-28T01:05:51.931Z,9.97
2023-04-28T01:08:24.891Z,10.07
2023-04-28T01:10:55.194Z,10.07
2023-04-28T01:13:42.806Z,10.05
2023-04-28T01:16:11.688Z,10.09
2023-04-28T01:18:44.206Z,10.10
2023-04-28T01:21:12.491Z,10.05
2023-04-28T01:23:40.902Z,10.12
2023-04-28T01:26:10.594Z,10.12
2023-04-28T01:28:38.818Z,10.13
2023-04-28T01:31:07.101Z,10.15
2023-04-28T01:33:37.026Z,10.09
2023-04-28T01:36:05.682Z,10.00
2023-04-28T01:38:33.947Z,9.98
2023-04-28T01:41:03.275Z,9.90
2023-04-28T01:43:34.519Z,9.78
2023-04-28T01:46:02.901Z,9.76
2023-04-28T01:48:33.706Z,9.71
2023-04-28T01:51:02.037Z,9.66
2023-04-28T01:53:30.320Z,9.63
2023-04-28T01:55:59.370Z,9.60
2023-04-28T01:58:27.986Z,9.62
2023-04-28T02:00:59.541Z,9.67
2023-04-28T02:03:29.010Z,9.69
2023-04-28T02:05:57.467Z,9.63
2023-04-28T02:08:25.787Z,9.71
2023-04-28T02:10:54.085Z,9.71
2023-04-28T02:13:23.267Z,9.71
2023-04-28T02:15:51.629Z,9.75
2023-04-28T02:18:23.741Z,9.74
2023-04-28T02:20:52.014Z,9.83
2023-04-28T02:23:20.391Z,9.82
2023-04-28T02:25:48.736Z,9.92
2023-04-28T02:28:17.022Z,9.88
2023-04-28T02:30:45.357Z,9.83
2023-04-28T02:33:13.579Z,9.94
2023-04-28T02:35:43.292Z,9.94
2023-04-28T02:38:11.876Z,9.96
2023-04-28T02:40:40.633Z,9.95
2023-04-28T02:43:09.793Z,9.83
2023-04-28T02:45:38.112Z,9.90
2023-04-28T02:48:06.803Z,9.90
2023-04-28T02:50:35.389Z,9.91
2023-04-28T02:53:05.053Z,9.95
2023-04-28T02:55:33.378Z,9.93
2023-04-28T02:58:01.695Z,9.94
2023-04-28T03:00:30.373Z,9.93
2023-04-28T03:02:59.411Z,10.03
2023-04-28T03:05:27.977Z,10.01
2023-04-28T03:07:58.529Z,10.08
2023-04-28T03:10:28.266Z,10.05
2023-04-28T03:12:56.620Z,10.11
2023-04-28T03:15:25.506Z,10.11
2023-04-28T03:17:53.850Z,10.06
2023-04-28T03:20:22.198Z,10.14
2023-04-28T03:22:50.842Z,10.20
2023-04-28T03:25:19.982Z,10.04
2023-04-28T03:27:52.362Z,10.20
2023-04-28T03:30:21.208Z,10.19
2023-04-28T03:32:49.421Z,10.13
2023-04-28T03:35:17.970Z,10.14
2023-04-28T03:37:46.239Z,10.18
2023-04-28T03:40:14.695Z,10.15
2023-04-28T03:43:15.451Z,10.20
2023-04-28T03:46:03.761Z,10.15
2023-04-28T03:48:32.092Z,10.23
2023-04-28T03:51:00.494Z,10.24
2023-04-28T03:53:28.887Z,10.29
2023-04-28T03:55:57.138Z,10.35
2023-04-28T03:58:28.095Z,10.34
2023-04-28T04:00:56.453Z,10.30
2023-04-28T04:03:26.487Z,10.29
2023-04-28T04:05:57.667Z,10.26
2023-04-28T04:08:26.083Z,10.23
2023-04-28T04:10:56.013Z,10.16
2023-04-28T04:13:24.498Z,10.10
2023-04-28T04:15:54.262Z,10.07
2023-04-28T04:18:26.070Z,9.98
2023-04-28T04:21:28.005Z,9.97
2023-04-28T04:23:57.177Z,9.98
2023-04-28T04:26:25.608Z,9.99
2023-04-28T04:28:54.036Z,10.01
2023-04-28T04:31:23.684Z,10.06
2023-04-28T04:33:53.464Z,9.90
2023-04-28T04:36:23.468Z,10.03
2023-04-28T04:38:54.384Z,10.00
2023-04-28T04:41:24.346Z,10.10
2023-04-28T04:44:04.492Z,10.16
2023-04-28T04:46:40.180Z,10.11
2023-04-28T04:49:08.829Z,9.97
2023-04-28T04:51:38.035Z,9.92
2023-04-28T04:54:07.448Z,9.95
2023-04-28T04:56:35.922Z,9.96
2023-04-28T04:59:04.473Z,10.00
2023-04-28T05:01:52.313Z,10.06
2023-04-28T05:04:21.087Z,10.07
2023-04-28T05:06:49.769Z,10.09
2023-04-28T05:09:18.465Z,10.00
2023-04-28T05:11:46.966Z,10.12
2023-04-28T05:14:15.419Z,10.04
2023-04-28T05:16:44.249Z,9.97
2023-04-28T05:19:26.388Z,9.97
2023-04-28T05:21:55.092Z,10.08
2023-04-28T05:24:25.324Z,10.11
2023-04-28T05:26:54.340Z,10.12
2023-04-28T05:29:22.792Z,10.12
2023-04-28T05:31:53.259Z,10.03
2023-04-28T05:34:23.935Z,10.09
2023-04-28T05:36:54.413Z,10.00
2023-04-28T05:39:27.149Z,9.91
2023-04-28T05:41:59.181Z,10.03
2023-04-28T05:44:27.630Z,10.01
2023-04-28T05:46:56.007Z,10.06
2023-04-28T05:49:27.529Z,10.12
2023-04-28T05:51:57.182Z,10.10
2023-04-28T05:54:25.885Z,10.16
2023-04-28T05:56:56.412Z,10.13
2023-04-28T05:59:25.230Z,10.28
2023-04-28T06:01:56.256Z,10.29
2023-04-28T06:04:25.404Z,10.31
2023-04-28T06:06:54.162Z,10.36
2023-04-28T06:09:24.190Z,10.35
2023-04-28T06:11:54.724Z,10.43
2023-04-28T06:14:24.027Z,10.52
2023-04-28T06:16:52.606Z,10.64
2023-04-28T06:19:21.193Z,10.43
2023-04-28T06:21:50.433Z,10.53
2023-04-28T06:24:18.914Z,10.53
2023-04-28T06:26:50.278Z,10.53
2023-04-28T06:29:20.519Z,10.68
2023-04-28T06:31:49.003Z,10.82
2023-04-28T06:34:17.847Z,10.90
2023-04-28T06:36:46.653Z,10.93
2023-04-28T06:39:15.087Z,11.02
2023-04-28T06:41:43.350Z,11.16
2023-04-28T06:44:14.512Z,11.23
2023-04-28T06:46:43.155Z,11.30
2023-04-28T06:49:11.799Z,11.48
2023-04-28T06:51:40.059Z,11.70
2023-04-28T06:54:08.435Z,11.88
2023-04-28T06:56:37.277Z,12.00
2023-04-28T06:59:05.606Z,11.98
2023-04-28T07:01:35.241Z,12.25
2023-04-28T07:04:03.840Z,12.31
2023-04-28T07:06:32.517Z,12.40
2023-04-28T07:09:00.891Z,12.57
2023-04-28T07:11:29.171Z,12.64
2023-04-28T07:13:57.382Z,12.75
2023-04-28T07:16:27.048Z,12.67
2023-04-28T07:18:57.056Z,12.67
2023-04-28T07:21:25.273Z,12.72
2023-04-28T07:23:56.853Z,12.93
2023-04-28T07:26:25.631Z,13.08
2023-04-28T07:28:53.887Z,13.12
2023-04-28T07:31:22.440Z,13.19
2023-04-28T07:33:50.677Z,13.22
2023-04-28T07:36:20.297Z,13.39
2023-04-28T07:38:48.765Z,13.61
2023-04-28T07:41:18.776Z,13.84
2023-04-28T07:43:47.172Z,13.98
2023-04-28T07:46:15.713Z,13.93
2023-04-28T07:48:44.074Z,13.96
2023-04-28T07:51:12.357Z,13.92
2023-04-28T07:53:42.061Z,13.79
2023-04-28T07:56:10.547Z,13.77
2023-04-28T07:58:38.805Z,13.95
2023-04-28T08:01:07.220Z,13.99
2023-04-28T08:03:35.738Z,13.96
2023-04-28T08:06:04.613Z,13.97
2023-04-28T08:08:33.588Z,13.93
2023-04-28T08:11:03.409Z,13.95
2023-04-28T08:13:31.922Z,13.90
2023-04-28T08:16:01.145Z,13.88
2023-04-28T08:18:29.812Z,13.90
2023-04-28T08:20:58.170Z,13.99
2023-04-28T08:23:28.278Z,14.08
2023-04-28T08:25:56.686Z,14.27
2023-04-28T08:28:26.407Z,14.57
2023-04-28T08:30:55.555Z,14.89
2023-04-28T08:33:25.008Z,15.12
2023-04-28T08:35:53.380Z,15.22
2023-04-28T08:38:24.101Z,15.39
2023-04-28T08:40:52.703Z,15.33
2023-04-28T08:43:21.709Z,15.11
2023-04-28T08:45:51.553Z,14.95
2023-04-28T08:48:21.603Z,14.88
2023-04-28T08:50:52.818Z,14.95
2023-04-28T08:53:26.452Z,14.88
2023-04-28T08:55:57.640Z,14.94
2023-04-28T08:58:26.620Z,15.06
2023-04-28T09:00:56.242Z,15.10
2023-04-28T09:03:24.754Z,15.10
2023-04-28T09:05:53.092Z,14.87
2023-04-28T09:08:21.429Z,14.72
2023-04-28T09:10:49.678Z,14.74
2023-04-28T09:13:26.552Z,14.73
2023-04-28T09:16:01.155Z,14.88
2023-04-28T09:18:29.525Z,14.94
2023-04-28T09:21:05.502Z,14.94
2023-04-28T09:23:34.917Z,14.85
2023-04-28T09:26:05.611Z,14.74
2023-04-28T09:28:34.501Z,14.65
2023-04-28T09:31:04.199Z,14.60
2023-04-28T09:33:32.934Z,14.49
2023-04-28T09:36:01.228Z,14.41
2023-04-28T09:38:30.284Z,14.44
2023-04-28T09:41:00.010Z,14.73
2023-04-28T09:43:30.487Z,14.98
2023-04-28T09:46:00.449Z,14.94
2023-04-28T09:48:34.523Z,14.95
2023-04-28T09:51:04.586Z,15.08
2023-04-28T09:53:34.351Z,15.09
2023-04-28T09:56:05.305Z,14.97
2023-04-28T09:58:36.082Z,14.89
2023-04-28T10:01:06.510Z,14.87
2023-04-28T10:03:36.877Z,14.81
2023-04-28T10:06:07.453Z,14.82
2023-04-28T10:08:36.055Z,14.91
2023-04-28T10:11:05.695Z,14.93
2023-04-28T10:13:35.676Z,14.87
2023-04-28T10:16:05.360Z,14.82
2023-04-28T10:18:35.236Z,14.84
2023-04-28T10:21:07.667Z,14.73
2023-04-28T10:24:11.032Z,14.48
2023-04-28T10:27:04.444Z,14.44
2023-04-28T10:29:34.587Z,14.55
2023-04-28T10:32:23.198Z,14.82
2023-04-28T10:34:51.671Z,15.00
2023-04-28T10:37:21.825Z,15.16
2023-04-28T10:40:27.224Z,14.95
2023-04-28T10:42:57.337Z,14.92
2023-04-28T10:46:03.614Z,14.80
2023-04-28T10:48:58.984Z,14.56
2023-04-28T10:51:31.997Z,14.36
2023-04-28T10:54:31.558Z,14.26
2023-04-28T10:57:21.403Z,14.04
2023-04-28T10:59:50.685Z,13.94
2023-04-28T11:02:44.531Z,13.93
2023-04-28T11:05:19.219Z,13.93
2023-04-28T11:08:33.287Z,14.10
2023-04-28T11:11:25.949Z,14.25
2023-04-28T11:13:55.964Z,14.13
2023-04-28T11:16:27.415Z,14.27
2023-04-28T11:19:05.476Z,14.12
2023-04-28T11:21:34.588Z,14.12
2023-04-28T11:24:09.571Z,14.08
2023-04-28T11:26:40.140Z,14.13
2023-04-28T11:29:09.908Z,14.34
2023-04-28T11:31:38.593Z,14.43
2023-04-28T11:34:12.005Z,14.50
2023-04-28T11:36:41.404Z,14.56
2023-04-28T11:39:11.408Z,14.57
2023-04-28T11:41:42.320Z,14.85
2023-04-28T11:44:14.866Z,15.02
2023-04-28T11:46:50.458Z,14.98
2023-04-28T11:49:19.802Z,15.21
2023-04-28T11:51:50.130Z,15.21
2023-04-28T11:54:23.433Z,15.48
2023-04-28T11:56:53.752Z,15.66
2023-04-28T11:59:26.389Z,15.75
2023-04-28T12:01:57.308Z,15.70
2023-04-28T12:04:32.008Z,15.75
2023-04-28T12:07:05.146Z,15.72
2023-04-28T12:09:34.989Z,15.59
2023-04-28T12:12:06.579Z,15.55
2023-04-28T12:14:54.501Z,15.32
2023-04-28T12:17:26.851Z,15.08
2023-04-28T12:19:55.389Z,15.01
2023-04-28T12:22:24.091Z,14.96
2023-04-28T12:25:09.356Z,14.82
2023-04-28T12:27:41.638Z,14.82
2023-04-28T12:30:28.780Z,14.86
2023-04-28T12:32:57.656Z,14.89
2023-04-28T12:35:27.020Z,15.06
2023-04-28T12:37:56.234Z,15.19
2023-04-28T12:40:24.696Z,15.34
2023-04-28T12:42:54.765Z,15.57
2023-04-28T12:45:23.053Z,15.62
2023-04-28T12:47:51.582Z,15.46
2023-04-28T12:50:19.959Z,15.34
2023-04-28T12:52:48.213Z,15.46
2023-04-28T12:55:16.660Z,15.46
2023-04-28T12:57:44.939Z,15.53
2023-04-28T13:00:16.483Z,15.41
2023-04-28T13:02:45.469Z,15.29
2023-04-28T13:05:14.438Z,15.18
2023-04-28T13:07:42.807Z,14.95
2023-04-28T13:10:11.740Z,14.88
2023-04-28T13:12:40.051Z,14.91
2023-04-28T13:15:09.166Z,14.92
2023-04-28T13:17:40.799Z,14.82
2023-04-28T13:20:10.657Z,14.81
2023-04-28T13:22:39.377Z,14.74
2023-04-28T13:25:08.886Z,14.75
2023-04-28T13:27:37.757Z,14.84
2023-04-28T13:30:08.760Z,14.86
2023-04-28T13:32:38.527Z,15.00
2023-04-28T13:35:08.989Z,15.02
2023-04-28T13:37:42.549Z,15.16
2023-04-28T13:40:12.222Z,15.37
2023-04-28T13:42:40.486Z,15.38
2023-04-28T13:45:09.240Z,15.46
2023-04-28T13:47:39.091Z,15.47
2023-04-28T13:50:08.291Z,15.46
2023-04-28T13:52:36.557Z,15.33
2023-04-28T13:55:05.037Z,15.27
2023-04-28T13:57:33.325Z,15.43
2023-04-28T14:00:01.770Z,15.43
2023-04-28T14:02:38.112Z,15.55
2023-04-28T14:05:08.839Z,15.82
2023-04-28T14:07:37.673Z,15.81
2023-04-28T14:10:06.325Z,15.88
2023-04-28T14:12:34.519Z,15.78
2023-04-28T14:15:03.093Z,15.77
2023-04-28T14:17:32.565Z,16.00
2023-04-28T14:20:01.495Z,16.25
2023-04-28T14:22:31.308Z,16.42
2023-04-28T14:24:59.592Z,16.36
2023-04-28T14:27:29.351Z,16.24
2023-04-28T14:29:57.765Z,16.24
2023-04-28T14:32:25.988Z,15.88
2023-04-28T14:34:54.311Z,15.86
2023-04-28T14:37:22.565Z,15.72
2023-04-28T14:39:52.286Z,15.66
2023-04-28T14:42:21.219Z,15.71
2023-04-28T14:44:49.667Z,15.84
2023-04-28T14:47:18.337Z,15.91
2023-04-28T14:49:48.046Z,15.80
2023-04-28T14:52:16.300Z,15.70
2023-04-28T14:54:44.904Z,15.63
2023-04-28T14:57:14.482Z,15.37
2023-04-28T14:59:43.386Z,15.21
2023-04-28T15:02:11.967Z,15.12
2023-04-28T15:04:40.737Z,15.10
2023-04-28T15:07:09.509Z,15.08
2023-04-28T15:09:37.805Z,15.13
2023-04-28T15:12:06.442Z,15.10
2023-04-28T15:14:36.740Z,15.02
2023-04-28T15:17:05.382Z,14.94
2023-04-28T15:19:33.764Z,15.01
2023-04-28T15:22:02.593Z,14.97
2023-04-28T15:24:31.133Z,14.96
2023-04-28T15:26:59.740Z,14.92
2023-04-28T15:29:28.454Z,14.94
2023-04-28T15:31:58.331Z,14.93
2023-04-28T15:34:26.882Z,14.96
2023-04-28T15:36:55.147Z,15.15
2023-04-28T15:39:23.884Z,15.49
2023-04-28T15:41:52.376Z,15.86
2023-04-28T15:44:20.636Z,15.99
2023-04-28T15:46:48.840Z,15.76
2023-04-28T15:49:18.481Z,15.92
2023-04-28T15:51:46.804Z,15.69
2023-04-28T15:54:15.176Z,15.60
2023-04-28T15:56:43.438Z,15.49
2023-04-28T15:59:14.924Z,15.39
2023-04-28T16:01:43.859Z,15.36
2023-04-28T16:04:12.255Z,15.37
2023-04-28T16:06:42.044Z,15.26
2023-04-28T16:09:10.317Z,15.25
2023-04-28T16:11:38.969Z,15.13
2023-04-28T16:14:07.249Z,15.06
2023-04-28T16:16:35.529Z,15.06
2023-04-28T16:19:04.565Z,15.03
2023-04-28T16:21:33.340Z,14.94
2023-04-28T16:24:04.534Z,14.95
2023-04-28T16:26:43.308Z,14.88
2023-04-28T16:29:14.292Z,14.86
2023-04-28T16:31:43.034Z,14.74
2023-04-28T16:34:12.159Z,14.65
2023-04-28T16:36:41.310Z,14.62
2023-04-28T16:39:11.132Z,14.65
2023-04-28T16:41:39.778Z,14.55
2023-04-28T16:44:08.240Z,14.47
2023-04-28T16:46:36.528Z,14.37
2023-04-28T16:49:04.803Z,14.29
2023-04-28T16:51:33.674Z,14.33
2023-04-28T16:54:02.279Z,14.14
2023-04-28T16:56:32.502Z,14.14
2023-04-28T16:59:00.838Z,14.08
2023-04-28T17:01:30.602Z,14.01
2023-04-28T17:04:00.252Z,14.04
2023-04-28T17:06:29.302Z,14.03
2023-04-28T17:08:58.871Z,14.06
2023-04-28T17:11:27.718Z,13.96
2023-04-28T17:13:57.949Z,13.93
2023-04-28T17:16:26.394Z,13.96
2023-04-28T17:18:54.783Z,13.92
2023-04-28T17:21:23.048Z,13.84
2023-04-28T17:23:51.290Z,13.81
2023-04-28T17:26:19.518Z,13.82
2023-04-28T17:28:47.771Z,13.79
2023-04-28T17:31:17.471Z,13.73
2023-04-28T17:33:46.507Z,13.62
2023-04-28T17:36:14.770Z,13.61
2023-04-28T17:38:42.975Z,13.62
2023-04-28T17:41:11.295Z,13.62
2023-04-28T17:43:39.561Z,13.56
2023-04-28T17:46:07.857Z,13.56
2023-04-28T17:48:37.557Z,13.51
2023-04-28T17:51:06.277Z,13.48
2023-04-28T17:53:34.678Z,13.48
2023-04-28T17:56:02.994Z,13.48
2023-04-28T17:58:32.665Z,13.46
2023-04-28T18:01:02.131Z,13.47
2023-04-28T18:03:30.980Z,13.48
2023-04-28T18:06:01.394Z,13.45
2023-04-28T18:08:29.648Z,13.35
2023-04-28T18:10:59.867Z,13.29
2023-04-28T18:13:28.398Z,13.37
2023-04-28T18:15:56.685Z,13.31
2023-04-28T18:18:25.863Z,13.24
2023-04-28T18:20:59.090Z,13.21
2023-04-28T18:23:30.389Z,13.25
2023-04-28T18:25:58.778Z,13.19
2023-04-28T18:28:27.083Z,13.16
2023-04-28T18:30:54.268Z,13.12
2023-04-28T18:33:25.797Z,13.14
2023-04-28T18:36:00.587Z,12.95
2023-04-28T18:38:31.685Z,12.79
2023-04-28T18:40:59.927Z,12.79
2023-04-28T18:43:28.315Z,12.73
2023-04-28T18:45:56.662Z,12.74
2023-04-28T18:48:25.704Z,12.75
2023-04-28T18:50:54.282Z,12.64
2023-04-28T18:53:22.548Z,12.67
2023-04-28T18:55:54.602Z,12.63
2023-04-28T18:58:22.889Z,12.62
2023-04-28T19:00:51.148Z,12.61
2023-04-28T19:03:19.846Z,12.63
2023-04-28T19:05:49.423Z,12.63
2023-04-28T19:08:17.648Z,12.63
2023-04-28T19:10:45.908Z,12.57
2023-04-28T19:13:16.223Z,12.58
2023-04-28T19:15:44.598Z,12.62
2023-04-28T19:18:12.875Z,12.59
2023-04-28T19:20:42.734Z,12.57
2023-04-28T19:23:11.701Z,12.61
2023-04-28T19:25:40.013Z,12.63
2023-04-28T19:28:08.453Z,12.50
2023-04-28T19:30:39.179Z,12.50
2023-04-28T19:33:07.572Z,12.44
2023-04-28T19:35:35.909Z,12.46
2023-04-28T19:38:04.328Z,12.50
2023-04-28T19:40:32.609Z,12.46
2023-04-28T19:43:01.086Z,12.43
2023-04-28T19:45:29.406Z,12.47
2023-04-28T19:47:59.196Z,12.42
2023-04-28T19:50:27.556Z,12.38
2023-04-28T19:52:55.793Z,12.42
2023-04-28T19:55:24.614Z,12.40
2023-04-28T19:57:55.293Z,12.38
2023-04-28T20:00:24.320Z,12.41
2023-04-28T20:02:52.811Z,12.51
2023-04-28T20:05:23.015Z,12.42
2023-04-28T20:07:51.553Z,12.32
2023-04-28T20:10:20.245Z,12.30
2023-04-28T20:12:48.511Z,12.26
2023-04-28T20:15:18.480Z,12.25
2023-04-28T20:17:46.987Z,12.22
2023-04-28T20:20:15.608Z,12.22
2023-04-28T20:22:45.224Z,12.16
2023-04-28T20:25:13.458Z,12.25
2023-04-28T20:27:41.802Z,12.21
2023-04-28T20:30:10.444Z,12.19
2023-04-28T20:32:39.061Z,12.16
2023-04-28T20:35:07.775Z,12.13
2023-04-28T20:37:36.010Z,12.14
2023-04-28T20:40:06.716Z,12.13
2023-04-28T20:42:35.067Z,12.12
2023-04-28T20:45:04.469Z,12.17
2023-04-28T20:47:32.731Z,12.13
2023-04-28T20:50:01.016Z,12.07
2023-04-28T20:52:29.740Z,12.06
2023-04-28T20:54:58.001Z,12.07
2023-04-28T20:57:27.622Z,12.00
2023-04-28T20:59:55.948Z,11.97
2023-04-28T21:02:24.297Z,12.02
2023-04-28T21:04:54.002Z,12.01
2023-04-28T21:07:22.217Z,11.98
2023-04-28T21:09:50.977Z,11.98
2023-04-28T21:12:19.384Z,11.99
2023-04-28T21:14:49.073Z,12.01
2023-04-28T21:17:17.317Z,12.00
2023-04-28T21:19:45.563Z,11.87
2023-04-28T21:22:14.635Z,11.87
2023-04-28T21:24:42.948Z,11.79
2023-04-28T21:27:11.262Z,11.77
2023-04-28T21:29:39.891Z,11.74
2023-04-28T21:32:09.848Z,11.74
2023-04-28T21:34:38.336Z,11.72
2023-04-28T21:37:06.705Z,11.69
2023-04-28T21:39:35.844Z,11.60
2023-04-28T21:42:04.660Z,11.60
2023-04-28T21:44:32.881Z,11.61
2023-04-28T21:47:01.144Z,11.57
2023-04-28T21:49:30.825Z,11.48
2023-04-28T21:51:59.044Z,11.55
2023-04-28T21:54:27.767Z,11.53
2023-04-28T21:56:56.034Z,11.47
2023-04-28T21:59:24.526Z,11.47
2023-04-28T22:01:53.357Z,11.48
2023-04-28T22:04:22.096Z,11.41
2023-04-28T22:06:51.991Z,11.48
2023-04-28T22:09:20.305Z,11.49
2023-04-28T22:11:48.740Z,11.45
2023-04-28T22:14:34.881Z,11.52
2023-04-28T22:17:05.173Z,11.44
2023-04-28T22:19:33.423Z,11.40
2023-04-28T22:22:03.157Z,11.40
2023-04-28T22:24:31.744Z,11.38
2023-04-28T22:27:00.180Z,11.25
2023-04-28T22:29:29.461Z,11.13
2023-04-28T22:31:58.653Z,11.03
2023-04-28T22:34:26.896Z,10.75
2023-04-28T22:36:55.391Z,10.65
2023-04-28T22:39:26.904Z,10.58
2023-04-28T22:41:55.714Z,10.55
2023-04-28T22:44:24.221Z,10.60
2023-04-28T22:46:52.972Z,10.51
2023-04-28T22:49:24.750Z,10.60
2023-04-28T22:51:53.052Z,10.51
2023-04-28T22:54:21.372Z,10.45
2023-04-28T22:56:53.295Z,10.40
2023-04-28T22:59:22.206Z,10.40
2023-04-28T23:01:50.757Z,10.39
2023-04-28T23:04:20.530Z,10.41
2023-04-28T23:06:49.086Z,10.43
2023-04-28T23:09:17.396Z,10.35
2023-04-28T23:11:45.824Z,10.37
2023-04-28T23:14:15.534Z,10.30
2023-04-28T23:16:43.939Z,10.27
2023-04-28T23:19:12.173Z,10.36
2023-04-28T23:21:40.372Z,10.29
2023-04-28T23:24:10.493Z,10.31
2023-04-28T23:26:38.732Z,10.35
2023-04-28T23:29:08.948Z,10.30
2023-04-28T23:31:40.010Z,10.23
2023-04-28T23:34:08.786Z,10.33
2023-04-28T23:36:37.945Z,10.30
2023-04-28T23:39:06.230Z,10.25
2023-04-28T23:41:34.672Z,10.25
2023-04-28T23:44:02.954Z,10.19
2023-04-28T23:46:31.348Z,10.18
2023-04-28T23:49:00.975Z,10.15
2023-04-28T23:51:29.211Z,10.08
2023-04-28T23:53:57.402Z,10.04
2023-04-28T23:56:26.206Z,10.03
2023-04-28T23:58:54.495Z,9.92
